Montgomery Regional (Dannelly Field) Airport
KMGM : now visible

Airfield :











YOU CAN JOIN US ON...

 
LOGIN :

Register | Disclaimer

   EN    FR    IT 

 









Legend :    VFR   Marginal VFR   IFR   Intensive IFR   Very Intensive IFR
Visi :
Ceiling :
>= 8 km
>= 3000ft
5 to 8 km
1000 to 3000 ft
1500m to 5 km
500 to 1000 ft
800 to 1500m
200 to 500 ft
< 800m
< 200 ft
Symbols :   Thunderstorms  Fog  Heavy snow  Heavy precipitations  Wind > 20 kt







- Airport Elevation : 221 ft
- IATA code : MGM


KMGM - Montgomery Regional (Dannelly Field)

CURRENT METAR :
  • 260153Z 10004KT 10SM FEW120 23/22 A2998 RMK AO2 RAE53 SLP147 P0006 T02330222 $

EXPIRED METARs :
  • 260053Z 00000KT 6SM -RA BR FEW070 BKN100 OVC110 23/22 A2997 RMK AO2 LTG DSNT W SLP147 P0036 T02330222 $
  • 260006Z 05004KT 3SM RA BR OVC033 23/22 A2996 RMK AO2 LTG DSNT W P0030 T02330217 $
  • 252353Z 11009KT 1SM +RA BR VV019 23/22 A2996 RMK AO2 LTG DSNT NW SLP144 P0207 60209 T02280217 10311 20228 53013 $
  • 252329Z 34007KT 1/2SM +RA FG VV014 23/21 A2998 RMK AO2 LTG DSNT ALQDS P0125 T02280211 $

TAF KMGM
Valid from the 26 at 00:00 until the 27 at 00:00 UTC


252333Z 2600/2624 25009KT 6SM -TSRA SCT015 BKN025CB
FM260100 10006KT 6SM SHRA VCTS BKN040CB BKN100
FM260500 11007KT P6SM VCSH OVC025
FM260700 10008KT P6SM VCSH OVC015
FM261000 11007KT P6SM VCSH OVC007
FM261600 11010KT P6SM VCTS BKN025CB
No reported NOTAMs for that airfield.



MET'MAP, your aeronautical weather chart ! - Copyright ORBIFLY December 2007 - Disclaimer

ORBIFLY MET'MAP TEAM :

Programming & Development : Alexandra Zaïnal
Concept & Development : Baudouin d'Aumeries
Co-Development & Prog : Marc-Olivier Méhu
Technical & hardware support : Manuel Goepfert

Contact : metmap@orbifly.com




SOURCES & CREDITS :

   NOAA       Earth
Advisory